Time;durP1;ratioP1;P1;durP2;ratioP2;P2;SDS_P1;SDS_P2;PMS_P1;PMS_P2;Temp;Humidity;BMP_temperature;BMP_pressure;BME280_temperature;BME280_humidity;BME280_pressure;Samples;Min_cycle;Max_cycle;Signal;HPM_P1;HPM_P2
2023/04/15 00:01:05;;;;;;;16.27;7.28;;;;;;;6.54;100.00;96678.28;5111550;28;20226;-77
2023/04/15 00:03:33;;;;;;;14.23;8.38;;;;;;;6.54;100.00;96665.00;5111682;28;20028;-77
2023/04/15 00:05:59;;;;;;;19.35;8.20;;;;;;;6.63;100.00;96692.81;5110496;28;20023;-74
2023/04/15 00:08:24;;;;;;;18.85;8.45;;;;;;;6.71;100.00;96696.72;5111541;28;20042;-77
2023/04/15 00:10:50;;;;;;;19.88;9.20;;;;;;;6.70;100.00;96700.34;5110330;28;20055;-75
2023/04/15 00:13:15;;;;;;;19.27;8.40;;;;;;;6.84;100.00;96718.94;5111400;28;20035;-74
2023/04/15 00:15:42;;;;;;;17.92;8.68;;;;;;;6.78;100.00;96697.19;5111336;28;20376;-76
2023/04/15 00:18:07;;;;;;;20.25;9.27;;;;;;;6.79;100.00;96702.44;5111330;28;20024;-76
2023/04/15 00:20:34;;;;;;;21.98;9.45;;;;;;;6.76;100.00;96696.44;5074040;28;20114;-75
2023/04/15 00:23:01;;;;;;;24.05;9.85;;;;;;;6.73;100.00;96694.84;5002283;28;20026;-75
2023/04/15 00:25:27;;;;;;;19.30;8.98;;;;;;;6.64;100.00;96695.38;5110036;28;20395;-77
2023/04/15 00:27:52;;;;;;;19.00;8.20;;;;;;;6.46;100.00;96707.94;5111429;28;20121;-76
2023/04/15 00:30:18;;;;;;;14.63;8.27;;;;;;;6.37;100.00;96707.63;5111003;28;20027;-77
2023/04/15 00:32:44;;;;;;;21.40;8.30;;;;;;;6.23;100.00;96713.75;5110044;28;20497;-76
2023/04/15 00:35:09;;;;;;;15.30;7.53;;;;;;;6.07;100.00;96698.78;5111198;28;20028;-76
2023/04/15 00:37:35;;;;;;;18.27;7.55;;;;;;;5.92;100.00;96704.06;5109735;28;20086;-76
2023/04/15 00:40:04;;;;;;;14.05;7.05;;;;;;;5.94;100.00;96711.91;5109866;28;20023;-77
2023/04/15 00:42:30;;;;;;;10.98;5.45;;;;;;;5.87;100.00;96703.47;5109814;28;20064;-76
2023/04/15 00:44:56;;;;;;;11.90;6.78;;;;;;;5.89;100.00;96706.88;5109712;28;20528;-77
2023/04/15 00:47:22;;;;;;;12.20;6.32;;;;;;;5.88;100.00;96707.81;5109532;28;20127;-76
2023/04/15 00:49:47;;;;;;;16.88;6.03;;;;;;;5.88;100.00;96707.81;5109825;28;20027;-77
2023/04/15 00:52:13;;;;;;;11.77;4.90;;;;;;;5.79;100.00;96695.03;5092748;28;20501;-77
2023/04/15 00:54:38;;;;;;;14.93;5.15;;;;;;;5.82;100.00;96696.66;5109642;28;20368;-77
2023/04/15 00:57:05;;;;;;;9.02;4.38;;;;;;;5.86;100.00;96701.75;5109569;28;20035;-77
2023/04/15 00:59:32;;;;;;;10.13;4.03;;;;;;;5.85;100.00;96689.41;5109369;28;20024;-76
2023/04/15 01:01:58;;;;;;;11.65;4.57;;;;;;;5.91;100.00;96702.34;5092659;28;20023;-77
2023/04/15 01:04:24;;;;;;;7.68;4.05;;;;;;;5.99;100.00;96702.78;5092594;28;20030;-76
2023/04/15 01:06:50;;;;;;;10.38;4.50;;;;;;;6.06;100.00;96707.72;5109600;28;20522;-76
2023/04/15 01:09:16;;;;;;;14.30;4.50;;;;;;;6.16;100.00;96699.13;5110258;28;20051;-77
2023/04/15 01:11:42;;;;;;;10.95;4.15;;;;;;;6.28;100.00;96702.84;5114913;28;20574;-76
2023/04/15 01:14:09;;;;;;;7.93;4.75;;;;;;;6.24;100.00;96709.31;5096505;28;20016;-76
2023/04/15 01:16:38;;;;;;;8.63;4.40;;;;;;;6.27;100.00;96714.44;5113455;28;20028;-76
2023/04/15 01:19:06;;;;;;;10.18;4.72;;;;;;;6.26;100.00;96712.72;5113803;28;20146;-77
2023/04/15 01:21:32;;;;;;;8.57;4.30;;;;;;;6.30;100.00;96706.31;5096508;28;20027;-76
2023/04/15 01:23:57;;;;;;;10.52;5.30;;;;;;;6.32;100.00;96707.91;5096579;28;20119;-77
2023/04/15 01:26:23;;;;;;;14.23;5.68;;;;;;;6.30;100.00;96712.47;5114634;28;20069;-75
2023/04/15 01:28:49;;;;;;;9.63;5.22;;;;;;;6.25;100.00;96718.97;5055037;28;20026;-75
2023/04/15 01:31:15;;;;;;;9.40;4.97;;;;;;;6.20;100.00;96716.59;5009768;28;20108;-76
2023/04/15 01:33:42;;;;;;;12.68;5.13;;;;;;;6.19;100.00;96708.72;4993338;28;20061;-76
2023/04/15 01:36:08;;;;;;;8.23;4.22;;;;;;;6.20;100.00;96716.59;5009945;28;20022;-76
2023/04/15 01:38:35;;;;;;;10.07;4.65;;;;;;;6.22;100.00;96708.53;5055668;28;20398;-76
2023/04/15 01:41:03;;;;;;;11.07;4.50;;;;;;;6.29;100.00;96709.88;5113316;28;20030;-76
2023/04/15 01:43:28;;;;;;;10.52;5.38;;;;;;;6.25;100.00;96700.38;5076797;28;20065;-76
2023/04/15 01:45:56;;;;;;;11.95;5.10;;;;;;;6.22;100.00;96684.63;5009251;28;20076;-75
2023/04/15 01:48:22;;;;;;;11.15;4.78;;;;;;;6.18;100.00;96691.94;5023903;28;20027;-77
2023/04/15 01:50:48;;;;;;;12.57;4.93;;;;;;;6.15;100.00;96692.13;5114266;28;20023;-77
2023/04/15 01:53:14;;;;;;;10.57;4.72;;;;;;;6.18;100.00;96685.78;5003056;28;20038;-76
2023/04/15 01:55:40;;;;;;;9.90;5.07;;;;;;;6.04;100.00;96681.25;4992725;28;20029;-75
2023/04/15 01:58:06;;;;;;;6.55;3.15;;;;;;;5.89;100.00;96676.84;5009253;28;20031;-77
2023/04/15 02:00:35;;;;;;;5.32;3.47;;;;;;;5.81;100.00;96671.94;5094608;28;20056;-76
2023/04/15 02:03:00;;;;;;;6.25;3.70;;;;;;;5.76;100.00;96687.25;5005292;28;20033;-77
2023/04/15 02:05:26;;;;;;;8.98;3.72;;;;;;;5.84;100.00;96687.69;5010451;28;20409;-76
2023/04/15 02:07:52;;;;;;;7.97;3.03;;;;;;;5.82;100.00;96694.88;5009100;28;20018;-76
2023/04/15 02:10:18;;;;;;;6.00;3.50;;;;;;;5.82;100.00;96686.91;5009098;28;20022;-75
2023/04/15 02:12:46;;;;;;;7.75;3.92;;;;;;;5.76;100.00;96697.00;5010419;28;20018;-76
2023/04/15 02:15:12;;;;;;;12.27;3.95;;;;;;;5.67;100.00;96695.75;5034177;28;20479;-77
2023/04/15 02:17:37;;;;;;;12.02;5.45;;;;;;;5.65;100.00;96696.78;5112277;28;20023;-76
2023/04/15 02:20:07;;;;;;;12.55;5.40;;;;;;;5.63;100.00;96703.97;5112580;28;20036;-75
2023/04/15 02:22:33;;;;;;;7.82;4.72;;;;;;;5.62;100.00;96697.81;5111723;28;20570;-76
2023/04/15 02:24:59;;;;;;;9.45;5.20;;;;;;;5.63;100.00;96694.19;5091323;28;20022;-76
2023/04/15 02:27:25;;;;;;;5.97;3.53;;;;;;;5.69;100.00;96699.16;5040713;28;20033;-76
2023/04/15 02:29:51;;;;;;;6.82;3.42;;;;;;;5.74;100.00;96690.94;5076394;28;20026;-76
2023/04/15 02:32:16;;;;;;;9.02;3.50;;;;;;;5.81;100.00;96697.63;5095359;28;20023;-75
2023/04/15 02:34:42;;;;;;;6.85;2.70;;;;;;;5.69;100.00;96685.88;5112115;28;20555;-76
2023/04/15 02:37:10;;;;;;;7.22;3.08;;;;;;;5.66;100.00;96683.41;4985616;28;20026;-76
2023/04/15 02:39:35;;;;;;;6.20;3.22;;;;;;;5.71;100.00;96691.13;5008637;28;20473;-77
2023/04/15 02:42:01;;;;;;;7.28;3.63;;;;;;;5.72;100.00;96683.06;5107056;28;20102;-77
2023/04/15 02:44:27;;;;;;;6.93;3.92;;;;;;;5.65;100.00;96673.75;5074438;28;20030;-77
2023/04/15 02:46:53;;;;;;;5.20;3.42;;;;;;;5.70;100.00;96674.34;5008730;28;20062;-76
2023/04/15 02:49:22;;;;;;;6.13;3.20;;;;;;;5.74;100.00;96669.72;4992383;28;20034;-76
2023/04/15 02:51:48;;;;;;;8.27;3.80;;;;;;;5.77;100.00;96681.03;5009434;28;20030;-77
2023/04/15 02:54:23;;;;;;;7.60;3.65;;;;;;;5.55;100.00;96671.69;5029470;28;20571;-77
2023/04/15 02:56:49;;;;;;;12.23;4.03;;;;;;;5.60;100.00;96686.41;5111543;28;20051;-76
2023/04/15 02:59:15;;;;;;;8.73;5.15;;;;;;;5.65;100.00;96684.38;5094888;28;20067;-76
2023/04/15 03:01:41;;;;;;;13.40;5.95;;;;;;;5.59;100.00;96687.38;5030970;28;20071;-76
2023/04/15 03:04:09;;;;;;;10.65;5.95;;;;;;;5.50;100.00;96689.66;5008389;28;20018;-76
2023/04/15 03:06:34;;;;;;;9.82;5.30;;;;;;;5.45;100.00;96695.22;5009498;28;20026;-75
2023/04/15 03:09:01;;;;;;;9.43;5.35;;;;;;;5.40;100.00;96691.97;5008184;28;20091;-76
2023/04/15 03:11:28;;;;;;;8.40;4.78;;;;;;;5.32;100.00;96688.91;5008361;28;20026;-76
2023/04/15 03:13:54;;;;;;;11.68;5.35;;;;;;;5.34;100.00;96682.56;5053245;28;20483;-76
2023/04/15 03:16:19;;;;;;;8.10;4.82;;;;;;;5.36;100.00;96677.16;5111506;28;20020;-76
2023/04/15 03:18:45;;;;;;;12.65;5.00;;;;;;;5.43;100.00;96691.81;5072859;28;20400;-76
2023/04/15 03:21:10;;;;;;;8.27;4.80;;;;;;;5.40;100.00;96687.53;5029492;28;20084;-75
2023/04/15 03:23:36;;;;;;;14.65;5.30;;;;;;;5.40;100.00;96694.63;5112483;28;20046;-76
2023/04/15 03:26:02;;;;;;;11.93;6.15;;;;;;;5.51;100.00;96705.47;5110951;28;20102;-76
2023/04/15 03:28:28;;;;;;;18.08;7.65;;;;;;;5.50;100.00;96697.63;5111207;28;20501;-76
2023/04/15 03:30:54;;;;;;;12.98;7.47;;;;;;;5.53;100.00;96702.75;5110873;28;20564;-75
2023/04/15 03:33:20;;;;;;;17.98;8.48;;;;;;;5.46;100.00;96707.53;5042924;28;20109;-76
2023/04/15 03:35:45;;;;;;;20.75;6.85;;;;;;;5.43;100.00;96713.88;5007652;28;20059;-75
2023/04/15 03:38:11;;;;;;;12.85;6.30;;;;;;;5.50;100.00;96724.16;4991123;28;20485;-76
2023/04/15 03:40:38;;;;;;;19.17;7.07;;;;;;;5.52;100.00;96732.88;5009263;28;20455;-76
2023/04/15 03:43:03;;;;;;;21.00;9.23;;;;;;;5.41;100.00;96734.28;5007576;28;20545;-76
2023/04/15 03:45:29;;;;;;;13.55;6.82;;;;;;;5.36;100.00;96733.72;5008975;28;20117;-75
2023/04/15 03:47:55;;;;;;;54.88;21.83;;;;;;;5.38;100.00;96739.78;5007836;28;20030;-76
2023/04/15 03:50:20;;;;;;;40.45;15.10;;;;;;;5.39;100.00;96748.59;4991056;28;20026;-76
2023/04/15 03:52:46;;;;;;;37.90;16.08;;;;;;;5.37;100.00;96758.44;5007823;28;20490;-76
2023/04/15 03:55:11;;;;;;;37.58;13.55;;;;;;;5.32;100.00;96760.47;5007253;28;20049;-75
2023/04/15 03:57:38;;;;;;;24.30;9.73;;;;;;;5.35;100.00;96762.97;5007749;28;20373;-76
2023/04/15 04:00:05;;;;;;;20.85;9.18;;;;;;;5.37;100.00;96767.25;5008645;28;20033;-76
2023/04/15 04:02:30;;;;;;;21.10;9.15;;;;;;;5.30;100.00;96762.34;5007504;28;20025;-76
2023/04/15 04:04:55;;;;;;;24.42;11.23;;;;;;;5.50;100.00;96783.34;5007190;28;20091;-76
2023/04/15 04:07:22;;;;;;;18.52;9.65;;;;;;;5.44;100.00;96786.34;5008433;28;20021;-76
2023/04/15 04:09:48;;;;;;;23.17;10.95;;;;;;;5.51;100.00;96787.69;5007335;28;20438;-77
2023/04/15 04:12:13;;;;;;;20.25;10.15;;;;;;;5.55;100.00;96791.03;4990713;28;20124;-76
2023/04/15 04:14:39;;;;;;;30.38;12.23;;;;;;;5.54;100.00;96797.31;5007421;28;20030;-76
2023/04/15 04:17:05;;;;;;;19.50;8.93;;;;;;;5.53;100.00;96812.34;5007362;28;20505;-76
2023/04/15 04:19:30;;;;;;;27.23;9.02;;;;;;;5.57;100.00;96813.88;5007054;28;20484;-76
2023/04/15 04:21:56;;;;;;;16.77;7.80;;;;;;;5.52;100.00;96801.81;5008315;28;20034;-77
2023/04/15 04:24:21;;;;;;;19.83;9.10;;;;;;;5.46;100.00;96800.34;5004885;28;20083;-76
2023/04/15 04:26:47;;;;;;;32.00;12.10;;;;;;;5.80;100.00;96833.88;5008478;28;20534;-77
2023/04/15 04:29:13;;;;;;;24.02;11.40;;;;;;;6.00;100.00;96815.94;5006992;28;20040;-76
2023/04/15 04:31:38;;;;;;;27.63;11.38;;;;;;;5.99;100.00;96808.94;5008263;28;20026;-76
2023/04/15 04:34:04;;;;;;;37.38;15.50;;;;;;;5.94;100.00;96807.44;5008138;28;20378;-76
2023/04/15 04:36:32;;;;;;;18.30;8.43;;;;;;;6.00;100.00;96821.25;5015008;28;20394;-77
2023/04/15 04:38:57;;;;;;;16.63;7.68;;;;;;;6.05;100.00;96831.63;5109938;28;20493;-77
2023/04/15 04:41:43;;;;;;;18.95;6.88;;;;;;;6.07;100.00;96843.00;5093148;28;20106;-78
2023/04/15 04:44:09;;;;;;;12.32;6.28;;;;;;;6.15;100.00;96840.78;4993874;28;20038;-78
2023/04/15 04:47:02;;;;;;;19.27;7.95;;;;;;;6.28;100.00;96847.09;5064601;28;20395;-76
2023/04/15 04:49:28;;;;;;;14.73;6.50;;;;;;;6.50;100.00;96838.78;5069813;28;20395;-76
2023/04/15 04:51:53;;;;;;;15.70;6.93;;;;;;;6.59;100.00;96840.91;5066842;28;20030;-76
2023/04/15 04:54:20;;;;;;;12.25;5.70;;;;;;;6.84;100.00;96841.19;5087575;28;20106;-75
2023/04/15 04:57:01;;;;;;;9.88;4.40;;;;;;;7.15;100.00;96810.13;5072310;28;20094;-78
2023/04/15 04:59:27;;;;;;;7.90;4.00;;;;;;;8.16;100.00;96833.03;5006512;28;20069;-76
2023/04/15 05:01:55;;;;;;;10.50;4.72;;;;;;;9.49;100.00;96834.78;5050029;28;20492;-76
2023/04/15 05:04:21;;;;;;;20.45;10.07;;;;;;;10.00;100.00;96813.38;5056134;28;20018;-76
2023/04/15 05:06:46;;;;;;;8.30;4.32;;;;;;;10.19;100.00;96798.63;5007996;28;20048;-77
2023/04/15 05:09:12;;;;;;;8.95;4.68;;;;;;;10.22;100.00;96790.41;5006574;28;20026;-75
2023/04/15 05:11:37;;;;;;;10.10;5.22;;;;;;;10.68;100.00;96787.84;5007282;28;20504;-75
2023/04/15 05:14:03;;;;;;;9.20;5.07;;;;;;;10.97;100.00;96792.84;5013923;28;20061;-78
2023/04/15 05:16:28;;;;;;;9.93;5.57;;;;;;;11.20;100.00;96800.81;5065432;28;20011;-77
2023/04/15 05:18:54;;;;;;;9.10;5.13;;;;;;;11.30;99.13;96791.13;5071087;28;20026;-80
2023/04/15 05:21:19;;;;;;;7.90;4.55;;;;;;;11.66;98.48;96799.97;5106686;28;20027;-84
2023/04/15 05:23:45;;;;;;;11.23;5.00;;;;;;;11.95;92.88;96788.69;5073901;28;20547;-86
2023/04/15 05:26:14;;;;;;;15.02;8.18;;;;;;;12.22;89.68;96769.53;5011724;28;20034;-85
2023/04/15 05:28:39;;;;;;;8.55;4.30;;;;;;;12.88;87.70;96775.69;5095059;28;20016;-88
2023/04/15 05:31:06;;;;;;;8.90;5.25;;;;;;;13.86;79.65;96775.28;5094861;28;20112;-87
2023/04/15 05:33:31;;;;;;;8.43;4.38;;;;;;;14.77;72.48;96763.53;4996264;28;20025;-84
2023/04/15 05:35:57;;;;;;;10.75;5.30;;;;;;;16.28;64.37;96765.28;5085804;28;20027;-85
2023/04/15 05:38:22;;;;;;;11.15;4.68;;;;;;;17.25;58.02;96739.38;5005446;28;20030;-84
2023/04/15 05:40:51;;;;;;;97.07;46.38;;;;;;;17.68;55.31;96731.28;5071501;28;20028;-88
2023/04/15 05:43:16;;;;;;;9.52;4.85;;;;;;;18.28;52.72;96728.56;5030291;28;20033;-87
2023/04/15 05:46:01;;;;;;;7.80;4.28;;;;;;;18.91;51.17;96732.56;5027184;28;20058;-79
2023/04/15 05:48:33;;;;;;;5.10;3.15;;;;;;;19.79;48.57;96728.19;5068965;28;20048;-81
2023/04/15 05:51:05;;;;;;;3.20;2.42;;;;;;;20.56;46.97;96704.88;5026729;28;20038;-79
2023/04/15 05:53:31;;;;;;;4.10;2.78;;;;;;;21.05;45.21;96695.41;5038062;28;20439;-80
2023/04/15 05:55:56;;;;;;;4.32;2.92;;;;;;;21.97;43.74;96691.56;5060366;28;20046;-78
2023/04/15 05:58:22;;;;;;;3.47;2.20;;;;;;;22.84;42.18;96694.44;5066983;28;20453;-79
2023/04/15 06:00:47;;;;;;;4.57;2.72;;;;;;;21.92;43.37;96682.28;5044847;28;20046;-80
2023/04/15 06:03:13;;;;;;;8.10;3.05;;;;;;;21.59;43.44;96679.84;5072731;28;20023;-78
2023/04/15 06:05:39;;;;;;;5.90;3.15;;;;;;;22.15;42.90;96678.44;5024573;28;20040;-78
2023/04/15 06:08:05;;;;;;;24.00;10.98;;;;;;;22.52;42.31;96676.59;5079382;28;20049;-83
2023/04/15 06:10:35;;;;;;;5.78;3.50;;;;;;;22.11;42.33;96662.66;5059583;28;20494;-80
2023/04/15 06:13:03;;;;;;;5.65;3.92;;;;;;;22.83;41.43;96673.66;5054755;28;20104;-76
2023/04/15 06:15:29;;;;;;;10.50;4.57;;;;;;;22.79;41.08;96664.19;5018982;28;20054;-79
2023/04/15 06:17:55;;;;;;;9.98;5.68;;;;;;;22.80;41.19;96672.16;5014080;28;20047;-78
2023/04/15 06:20:20;;;;;;;30.52;17.30;;;;;;;23.08;40.76;96673.13;5067553;28;20042;-85
2023/04/15 06:22:46;;;;;;;5.15;3.60;;;;;;;23.11;40.71;96671.88;4991159;28;20094;-78
2023/04/15 06:25:12;;;;;;;5.35;3.38;;;;;;;22.95;40.54;96653.88;4989802;28;20065;-80
2023/04/15 06:27:45;;;;;;;7.28;4.30;;;;;;;22.81;40.97;96654.78;5091839;28;20489;-79
2023/04/15 06:30:11;;;;;;;12.50;2.92;;;;;;;23.19;39.85;96661.66;5071216;28;20073;-81
2023/04/15 06:32:36;;;;;;;7.53;4.47;;;;;;;24.15;38.50;96658.28;5035145;28;20475;-79
2023/04/15 06:35:02;;;;;;;5.97;2.97;;;;;;;23.88;38.99;96652.81;5002908;28;20078;-81
2023/04/15 06:37:28;;;;;;;8.30;4.30;;;;;;;24.39;38.30;96665.19;5049456;28;20024;-82
2023/04/15 06:39:54;;;;;;;4.32;2.10;;;;;;;25.03;37.57;96671.13;5008711;28;20030;-83
2023/04/15 06:42:19;;;;;;;14.02;3.40;;;;;;;26.05;35.69;96665.31;5104329;28;20023;-82
2023/04/15 06:44:45;;;;;;;6.05;3.17;;;;;;;26.17;35.34;96666.38;5095791;28;20030;-76
2023/04/15 06:47:13;;;;;;;3.05;2.60;;;;;;;26.35;34.83;96653.69;5113725;27;20108;-79
2023/04/15 06:49:39;;;;;;;7.22;2.75;;;;;;;26.36;34.27;96644.38;5131241;27;20299;-87
2023/04/15 06:52:04;;;;;;;4.05;2.45;;;;;;;25.87;34.69;96635.84;5114174;27;20075;-83
2023/04/15 06:54:33;;;;;;;6.53;2.55;;;;;;;26.31;34.17;96644.19;5113027;27;20084;-78
2023/04/15 06:56:59;;;;;;;4.43;2.80;;;;;;;26.33;34.62;96635.78;5095678;27;20023;-80
2023/04/15 06:59:24;;;;;;;9.43;4.07;;;;;;;25.08;35.67;96624.81;5112926;27;20019;-76
2023/04/15 07:01:50;;;;;;;7.20;3.95;;;;;;;25.23;35.45;96632.84;5113967;27;20049;-77
2023/04/15 07:04:15;;;;;;;15.07;4.85;;;;;;;25.64;35.18;96643.63;5123040;27;20486;-85
2023/04/15 07:06:41;;;;;;;5.18;3.47;;;;;;;25.40;35.60;96630.53;5128160;27;20094;-82
2023/04/15 07:09:07;;;;;;;11.85;4.03;;;;;;;25.99;35.26;96634.13;5124163;27;20505;-82
2023/04/15 07:11:33;;;;;;;10.40;6.05;;;;;;;26.64;34.64;96651.50;5113958;27;20425;-84
2023/04/15 07:13:58;;;;;;;8.05;4.20;;;;;;;27.39;33.73;96647.91;5107913;27;20039;-81
2023/04/15 07:16:24;;;;;;;5.05;2.90;;;;;;;27.74;33.02;96648.31;5091285;27;20478;-84
2023/04/15 07:18:49;;;;;;;4.60;2.42;;;;;;;27.23;32.70;96624.56;5109845;27;20163;-85
2023/04/15 07:21:15;;;;;;;6.18;2.88;;;;;;;27.61;32.62;96632.78;5105948;27;20030;-88
2023/04/15 07:23:41;;;;;;;8.23;2.65;;;;;;;26.91;32.76;96612.75;5105742;27;20031;-82
2023/04/15 07:26:07;;;;;;;5.93;2.50;;;;;;;26.07;33.73;96595.50;5111597;27;20031;-89
2023/04/15 07:28:33;;;;;;;3.17;1.95;;;;;;;24.48;35.76;96608.41;5114359;27;20038;-84
2023/04/15 07:30:58;;;;;;;3.85;1.90;;;;;;;25.72;35.10;96629.72;5114960;27;20023;-80
2023/04/15 07:33:24;;;;;;;13.50;7.82;;;;;;;26.75;33.48;96632.44;5113085;27;20027;-83
2023/04/15 07:35:49;;;;;;;10.60;4.70;;;;;;;27.06;33.48;96631.66;5094655;27;20405;-81
2023/04/15 07:38:15;;;;;;;5.72;3.17;;;;;;;27.56;31.86;96629.03;5095626;27;20402;-81
2023/04/15 07:40:41;;;;;;;3.80;2.05;;;;;;;28.31;31.57;96641.66;5111713;27;20153;-81
2023/04/15 07:43:07;;;;;;;2.47;1.88;;;;;;;27.46;31.73;96613.03;5112027;27;20030;-81
2023/04/15 07:45:36;;;;;;;4.00;3.05;;;;;;;28.09;30.31;96601.88;5111826;27;20142;-85
2023/04/15 07:48:02;;;;;;;4.20;2.10;;;;;;;28.07;29.67;96607.63;5112737;27;20053;-82
2023/04/15 07:50:27;;;;;;;6.53;1.92;;;;;;;28.01;29.63;96611.25;5097203;27;20545;-77
2023/04/15 07:52:53;;;;;;;7.82;3.38;;;;;;;26.84;32.02;96602.84;5141872;27;20019;-77
2023/04/15 07:55:20;;;;;;;6.55;1.48;;;;;;;26.96;30.06;96594.75;5112763;27;20041;-85
2023/04/15 07:57:47;;;;;;;6.47;1.50;;;;;;;27.94;29.86;96615.97;5094885;27;20034;-83
2023/04/15 08:00:22;;;;;;;2.45;1.20;;;;;;;27.12;30.00;96595.09;5110952;27;20023;-83
2023/04/15 08:02:48;;;;;;;4.45;1.30;;;;;;;24.51;32.37;96554.16;5094247;27;20126;-83
2023/04/15 08:05:19;;;;;;;4.40;1.80;;;;;;;25.50;32.15;96589.94;5094075;27;20102;-82
2023/04/15 08:07:48;;;;;;;7.77;2.10;;;;;;;27.05;29.99;96604.41;5108177;27;20035;-83
2023/04/15 08:10:17;;;;;;;3.33;1.13;;;;;;;27.83;28.29;96613.97;5110973;27;20055;-82
2023/04/15 08:12:42;;;;;;;4.22;1.20;;;;;;;28.37;27.83;96616.81;5094747;27;20499;-79
2023/04/15 08:15:08;;;;;;;7.30;2.30;;;;;;;28.92;27.72;96614.03;5111848;27;20066;-85
2023/04/15 08:17:34;;;;;;;15.20;8.15;;;;;;;27.94;26.98;96588.47;5130151;27;20031;-86
2023/04/15 08:19:59;;;;;;;2.83;1.00;;;;;;;28.26;26.99;96603.84;5110565;27;20042;-81
2023/04/15 08:22:25;;;;;;;4.55;1.60;;;;;;;29.56;25.97;96621.59;5110931;27;20049;-81
2023/04/15 08:24:50;;;;;;;2.90;1.42;;;;;;;29.96;26.10;96614.34;5093792;27;20122;-85
2023/04/15 08:27:16;;;;;;;2.40;1.38;;;;;;;29.44;25.57;96602.25;5091118;28;20045;-84
2023/04/15 08:29:42;;;;;;;3.38;1.27;;;;;;;28.45;26.37;96578.00;5111513;27;20033;-82
2023/04/15 08:32:08;;;;;;;19.25;6.85;;;;;;;27.62;27.94;96581.41;5112296;27;20030;-87
2023/04/15 08:34:34;;;;;;;3.80;1.98;;;;;;;26.06;28.14;96539.00;5095222;27;20027;-80
2023/04/15 08:36:59;;;;;;;1.75;1.52;;;;;;;23.94;31.07;96529.06;5111378;27;20027;-88
2023/04/15 08:39:26;;;;;;;9.10;4.82;;;;;;;23.55;32.33;96533.28;5130908;27;20513;-82
2023/04/15 08:42:01;;;;;;;2.08;1.45;;;;;;;21.90;33.37;96510.88;5095641;27;20106;-86
2023/04/15 08:44:29;;;;;;;3.85;1.40;;;;;;;21.26;34.03;96512.50;5112574;27;20026;-86
2023/04/15 08:46:56;;;;;;;3.47;1.40;;;;;;;20.55;35.82;96507.53;5095208;27;20075;-86
2023/04/15 08:49:24;;;;;;;3.90;2.00;;;;;;;22.43;34.11;96572.31;5094457;28;20553;-77
2023/04/15 08:51:50;;;;;;;4.53;1.42;;;;;;;25.16;30.87;96604.63;5111270;28;20023;-90
2023/04/15 08:54:16;;;;;;;1.60;1.00;;;;;;;26.71;27.52;96592.75;5112678;28;20496;-76
2023/04/15 08:56:41;;;;;;;5.55;1.95;;;;;;;27.47;27.53;96611.13;5111021;28;20027;-74
2023/04/15 08:59:07;;;;;;;1.85;0.90;;;;;;;27.52;26.97;96589.31;5116032;28;20395;-72
2023/04/15 09:01:33;;;;;;;2.17;0.90;;;;;;;28.44;25.81;96584.56;5130403;28;20058;-73
2023/04/15 09:04:00;;;;;;;3.42;1.20;;;;;;;28.72;25.79;96591.44;5111984;28;20058;-72
2023/04/15 09:06:25;;;;;;;2.67;2.05;;;;;;;30.06;24.47;96603.56;5111771;28;20039;-85
2023/04/15 09:08:51;;;;;;;2.92;1.30;;;;;;;30.89;23.40;96605.94;5093660;28;20023;-87
2023/04/15 09:11:18;;;;;;;5.80;1.17;;;;;;;31.45;22.37;96588.53;5090446;28;20023;-83
2023/04/15 09:13:47;;;;;;;2.58;1.00;;;;;;;31.47;21.47;96568.94;5094035;28;20034;-74
2023/04/15 09:16:13;;;;;;;3.05;1.60;;;;;;;31.65;21.30;96577.88;5120794;28;20039;-74
2023/04/15 09:18:38;;;;;;;2.40;1.20;;;;;;;29.53;22.07;96501.59;5109825;28;20028;-73
2023/04/15 09:21:13;;;;;;;1.38;0.80;;;;;;;28.12;22.71;96496.94;5109990;28;20031;-74
2023/04/15 09:23:40;;;;;;;4.15;1.00;;;;;;;27.92;22.95;96488.91;5128320;28;20023;-74
2023/04/15 09:26:06;;;;;;;2.95;1.30;;;;;;;27.60;23.56;96488.19;5110229;27;20473;-73
2023/04/15 09:28:32;;;;;;;1.33;0.95;;;;;;;27.90;23.46;96493.78;5127983;28;20037;-80
2023/04/15 09:31:01;;;;;;;3.13;1.95;;;;;;;28.02;23.62;96491.09;5112320;27;20452;-74
2023/04/15 09:33:28;;;;;;;2.50;1.52;;;;;;;28.36;22.76;96485.00;5114274;27;20447;-74
2023/04/15 09:36:02;;;;;;;1.50;1.00;;;;;;;27.66;22.56;96448.78;5114267;27;20126;-73
2023/04/15 09:38:28;;;;;;;2.05;0.90;;;;;;;26.51;24.04;96452.13;5114020;27;20076;-75
2023/04/15 09:40:54;;;;;;;1.08;0.60;;;;;;;26.87;24.02;96459.69;5113564;27;20031;-74
2023/04/15 09:43:20;;;;;;;1.17;0.77;;;;;;;27.54;23.69;96469.00;5114043;27;20075;-74
2023/04/15 09:45:52;;;;;;;2.13;0.98;;;;;;;27.99;23.55;96479.47;5113487;27;20066;-75
2023/04/15 09:48:21;;;;;;;;;;;;;;;29.05;22.65;96487.16;5114191;27;20039;-76
2023/04/15 09:50:52;;;;;;;0.93;0.50;;;;;;;29.05;22.30;96473.38;5113304;27;19987;-78
2023/04/15 09:53:22;;;;;;;2.20;0.90;;;;;;;28.76;22.65;96471.53;5134022;27;20023;-79
2023/04/15 09:56:01;;;;;;;1.27;0.80;;;;;;;28.94;22.98;96485.22;5113931;27;20390;-78
2023/04/15 09:58:32;;;;;;;0.75;0.75;;;;;;;27.79;23.86;96448.66;5113351;27;20027;-76
2023/04/15 10:00:59;;;;;;;1.98;0.93;;;;;;;27.48;24.80;96451.53;5113739;27;20026;-75
2023/04/15 10:03:29;;;;;;;1.33;0.57;;;;;;;25.25;25.52;96409.84;5131627;27;20068;-75
2023/04/15 10:05:57;;;;;;;1.88;1.20;;;;;;;24.56;27.25;96442.25;5106865;27;20410;-75
2023/04/15 10:08:24;;;;;;;2.47;1.10;;;;;;;24.72;26.76;96439.09;5112998;27;20461;-76
2023/04/15 10:10:51;;;;;;;4.53;1.00;;;;;;;25.70;25.94;96453.75;5096077;27;20035;-76
2023/04/15 10:13:22;;;;;;;1.58;1.15;;;;;;;25.85;25.83;96459.81;5113297;27;20154;-77
2023/04/15 10:15:56;;;;;;;5.83;1.50;;;;;;;25.08;26.64;96438.69;5112974;27;20114;-78
2023/04/15 10:18:27;;;;;;;1.75;1.10;;;;;;;24.98;27.49;96457.44;5113298;27;20319;-78
2023/04/15 10:20:53;;;;;;;4.40;2.13;;;;;;;25.47;26.94;96464.34;5095639;27;20046;-77
2023/04/15 10:23:20;;;;;;;3.83;1.17;;;;;;;25.63;26.42;96466.63;5113303;27;20076;-76
2023/04/15 10:25:46;;;;;;;2.00;1.20;;;;;;;25.51;26.79;96443.69;5096019;27;20023;-75
2023/04/15 10:28:12;;;;;;;2.42;1.08;;;;;;;24.96;26.90;96447.75;5095994;27;20082;-77
2023/04/15 10:30:37;;;;;;;2.05;1.02;;;;;;;24.37;27.39;96425.81;5112331;27;20084;-76
2023/04/15 10:33:06;;;;;;;5.85;1.42;;;;;;;24.23;27.79;96433.16;5112915;27;20472;-76
2023/04/15 10:35:35;;;;;;;1.92;0.90;;;;;;;23.95;27.46;96416.88;5096818;27;20084;-78
2023/04/15 10:38:01;;;;;;;4.07;0.93;;;;;;;24.23;27.86;96434.00;5095579;27;20026;-77
2023/04/15 10:40:32;;;;;;;3.08;1.40;;;;;;;24.48;27.62;96438.88;5131291;27;20113;-77
2023/04/15 10:43:07;;;;;;;2.25;1.45;;;;;;;24.76;27.42;96442.28;5095133;27;20421;-77
2023/04/15 10:45:40;;;;;;;1.48;0.90;;;;;;;25.46;26.04;96449.78;5112608;27;20168;-77
2023/04/15 10:48:07;;;;;;;2.50;1.50;;;;;;;26.32;25.38;96464.03;5112929;27;20533;-77
2023/04/15 10:50:33;;;;;;;2.95;1.10;;;;;;;26.35;25.23;96447.16;5112644;27;20031;-77
2023/04/15 10:53:02;;;;;;;4.20;1.35;;;;;;;26.31;25.67;96454.97;5112226;27;20026;-77
2023/04/15 10:55:31;;;;;;;3.08;0.90;;;;;;;27.16;24.79;96453.53;5112089;27;20110;-78
2023/04/15 10:58:01;;;;;;;1.75;0.80;;;;;;;27.23;24.99;96458.94;5111885;27;20473;-78
2023/04/15 11:00:31;;;;;;;1.80;0.70;;;;;;;27.51;24.61;96444.75;5112351;27;20246;-78
2023/04/15 11:02:58;;;;;;;1.40;0.90;;;;;;;28.47;23.68;96467.69;5094974;27;20019;-79
2023/04/15 11:05:49;;;;;;;6.15;1.20;;;;;;;27.64;24.39;96441.84;5112097;27;20039;-79
2023/04/15 11:08:15;;;;;;;2.20;1.42;;;;;;;27.55;24.53;96427.59;5112011;27;20043;-79
2023/04/15 11:10:40;;;;;;;1.70;0.95;;;;;;;27.89;24.16;96434.38;5130753;27;20027;-79
2023/04/15 11:13:09;;;;;;;2.85;0.90;;;;;;;28.40;24.17;96444.91;5130693;27;20038;-79
2023/04/15 11:15:43;;;;;;;2.53;1.00;;;;;;;28.35;24.17;96442.88;5112107;27;20131;-78
2023/04/15 11:18:10;;;;;;;3.08;1.20;;;;;;;28.32;24.53;96443.34;5112084;27;20502;-78
2023/04/15 11:20:36;;;;;;;5.13;1.20;;;;;;;28.42;23.91;96437.28;5111739;27;20464;-78
2023/04/15 11:23:03;;;;;;;1.83;1.10;;;;;;;28.12;24.30;96420.75;5111614;27;20023;-78
2023/04/15 11:25:32;;;;;;;1.83;0.98;;;;;;;28.32;24.42;96443.34;5111970;27;20023;-78
2023/04/15 11:27:59;;;;;;;4.45;1.02;;;;;;;28.25;25.01;96444.50;5110899;27;20075;-77